sensor_id;sensor_type;location;lat;lon;timestamp;temperature;humidity
4910;DHT22;2470;49.868;8.660;2023-02-15T00:01:38;4.70;99.90
4910;DHT22;2470;49.868;8.660;2023-02-15T00:04:05;4.70;99.90
4910;DHT22;2470;49.868;8.660;2023-02-15T00:06:31;4.60;99.90
4910;DHT22;2470;49.868;8.660;2023-02-15T00:08:58;4.60;99.90
4910;DHT22;2470;49.868;8.660;2023-02-15T00:11:24;4.60;99.90
4910;DHT22;2470;49.868;8.660;2023-02-15T00:14:21;4.60;99.90
4910;DHT22;2470;49.868;8.660;2023-02-15T00:16:48;4.50;99.90
4910;DHT22;2470;49.868;8.660;2023-02-15T00:19:16;4.50;99.90
4910;DHT22;2470;49.868;8.660;2023-02-15T00:21:42;4.50;99.90
4910;DHT22;2470;49.868;8.660;2023-02-15T00:24:08;4.50;99.90
4910;DHT22;2470;49.868;8.660;2023-02-15T00:26:35;4.50;99.90
4910;DHT22;2470;49.868;8.660;2023-02-15T00:29:01;4.60;99.90
4910;DHT22;2470;49.868;8.660;2023-02-15T00:31:28;4.60;99.90
4910;DHT22;2470;49.868;8.660;2023-02-15T00:33:55;4.60;99.90
4910;DHT22;2470;49.868;8.660;2023-02-15T00:36:21;4.60;99.90
4910;DHT22;2470;49.868;8.660;2023-02-15T00:38:46;4.60;99.90
4910;DHT22;2470;49.868;8.660;2023-02-15T00:41:12;4.60;99.90
4910;DHT22;2470;49.868;8.660;2023-02-15T00:43:37;4.60;99.90
4910;DHT22;2470;49.868;8.660;2023-02-15T00:46:04;4.60;99.90
4910;DHT22;2470;49.868;8.660;2023-02-15T00:48:30;4.60;99.90
4910;DHT22;2470;49.868;8.660;2023-02-15T00:50:58;4.70;99.90
4910;DHT22;2470;49.868;8.660;2023-02-15T00:53:25;4.70;99.90
4910;DHT22;2470;49.868;8.660;2023-02-15T00:55:50;4.70;99.90
4910;DHT22;2470;49.868;8.660;2023-02-15T00:58:16;4.70;99.90
4910;DHT22;2470;49.868;8.660;2023-02-15T01:00:44;4.60;99.90
4910;DHT22;2470;49.868;8.660;2023-02-15T01:03:10;4.60;99.90
4910;DHT22;2470;49.868;8.660;2023-02-15T01:05:36;4.50;99.90
4910;DHT22;2470;49.868;8.660;2023-02-15T01:08:02;4.50;99.90
4910;DHT22;2470;49.868;8.660;2023-02-15T01:10:28;4.50;99.90
4910;DHT22;2470;49.868;8.660;2023-02-15T01:12:54;4.60;99.90
4910;DHT22;2470;49.868;8.660;2023-02-15T01:15:20;4.50;99.90
4910;DHT22;2470;49.868;8.660;2023-02-15T01:17:46;4.50;99.90
4910;DHT22;2470;49.868;8.660;2023-02-15T01:20:22;4.50;99.90
4910;DHT22;2470;49.868;8.660;2023-02-15T01:22:47;4.40;99.90
4910;DHT22;2470;49.868;8.660;2023-02-15T01:25:15;4.40;99.90
4910;DHT22;2470;49.868;8.660;2023-02-15T01:27:41;4.40;99.90
4910;DHT22;2470;49.868;8.660;2023-02-15T01:30:07;4.40;99.90
4910;DHT22;2470;49.868;8.660;2023-02-15T01:32:34;4.40;99.90
4910;DHT22;2470;49.868;8.660;2023-02-15T01:34:59;4.40;99.90
4910;DHT22;2470;49.868;8.660;2023-02-15T01:37:25;4.40;99.90
4910;DHT22;2470;49.868;8.660;2023-02-15T01:39:50;4.50;99.90
4910;DHT22;2470;49.868;8.660;2023-02-15T01:42:22;4.50;99.90
4910;DHT22;2470;49.868;8.660;2023-02-15T01:44:59;4.60;99.90
4910;DHT22;2470;49.868;8.660;2023-02-15T01:47:39;4.60;99.90
4910;DHT22;2470;49.868;8.660;2023-02-15T01:50:13;4.60;99.90
4910;DHT22;2470;49.868;8.660;2023-02-15T01:52:53;4.60;99.90
4910;DHT22;2470;49.868;8.660;2023-02-15T01:55:22;4.60;99.90
4910;DHT22;2470;49.868;8.660;2023-02-15T01:57:49;4.60;99.90
4910;DHT22;2470;49.868;8.660;2023-02-15T02:00:15;4.50;99.90
4910;DHT22;2470;49.868;8.660;2023-02-15T02:02:45;4.50;99.90
4910;DHT22;2470;49.868;8.660;2023-02-15T02:05:12;4.60;99.90
4910;DHT22;2470;49.868;8.660;2023-02-15T02:07:41;4.50;99.90
4910;DHT22;2470;49.868;8.660;2023-02-15T02:10:11;4.40;99.90
4910;DHT22;2470;49.868;8.660;2023-02-15T02:12:37;4.40;99.90
4910;DHT22;2470;49.868;8.660;2023-02-15T02:15:04;4.40;99.90
4910;DHT22;2470;49.868;8.660;2023-02-15T02:23:34;4.40;99.90
4910;DHT22;2470;49.868;8.660;2023-02-15T02:29:40;4.40;99.90
4910;DHT22;2470;49.868;8.660;2023-02-15T02:34:59;4.30;99.90
4910;DHT22;2470;49.868;8.660;2023-02-15T02:37:56;4.30;99.90
4910;DHT22;2470;49.868;8.660;2023-02-15T02:43:14;4.40;99.90
4910;DHT22;2470;49.868;8.660;2023-02-15T02:45:47;4.40;99.90
4910;DHT22;2470;49.868;8.660;2023-02-15T02:48:18;4.40;99.90
4910;DHT22;2470;49.868;8.660;2023-02-15T02:50:45;4.40;99.90
4910;DHT22;2470;49.868;8.660;2023-02-15T02:53:10;4.30;99.90
4910;DHT22;2470;49.868;8.660;2023-02-15T02:58:31;4.30;99.90
4910;DHT22;2470;49.868;8.660;2023-02-15T03:01:09;4.30;99.90
4910;DHT22;2470;49.868;8.660;2023-02-15T03:03:39;4.30;99.90
4910;DHT22;2470;49.868;8.660;2023-02-15T03:06:15;4.40;99.90
4910;DHT22;2470;49.868;8.660;2023-02-15T03:08:47;4.40;99.90
4910;DHT22;2470;49.868;8.660;2023-02-15T03:11:13;4.50;99.90
4910;DHT22;2470;49.868;8.660;2023-02-15T03:13:39;4.40;99.90
4910;DHT22;2470;49.868;8.660;2023-02-15T03:16:07;4.40;99.90
4910;DHT22;2470;49.868;8.660;2023-02-15T03:19:11;4.30;99.90
4910;DHT22;2470;49.868;8.660;2023-02-15T03:21:43;4.30;99.90
4910;DHT22;2470;49.868;8.660;2023-02-15T03:24:19;4.30;99.90
4910;DHT22;2470;49.868;8.660;2023-02-15T03:26:49;4.40;99.90
4910;DHT22;2470;49.868;8.660;2023-02-15T03:29:17;4.40;99.90
4910;DHT22;2470;49.868;8.660;2023-02-15T03:31:46;4.40;99.90
4910;DHT22;2470;49.868;8.660;2023-02-15T03:34:15;4.40;99.90
4910;DHT22;2470;49.868;8.660;2023-02-15T03:39:42;4.40;99.90
4910;DHT22;2470;49.868;8.660;2023-02-15T03:42:26;4.40;99.90
4910;DHT22;2470;49.868;8.660;2023-02-15T03:47:22;4.50;99.90
4910;DHT22;2470;49.868;8.660;2023-02-15T03:50:08;4.50;99.90
4910;DHT22;2470;49.868;8.660;2023-02-15T03:52:57;4.50;99.90
4910;DHT22;2470;49.868;8.660;2023-02-15T03:55:23;4.50;99.90
4910;DHT22;2470;49.868;8.660;2023-02-15T03:57:49;4.50;99.90
4910;DHT22;2470;49.868;8.660;2023-02-15T04:00:36;4.50;99.90
4910;DHT22;2470;49.868;8.660;2023-02-15T04:03:26;4.50;99.90
4910;DHT22;2470;49.868;8.660;2023-02-15T04:05:56;4.50;99.90
4910;DHT22;2470;49.868;8.660;2023-02-15T04:08:21;4.50;99.90
4910;DHT22;2470;49.868;8.660;2023-02-15T04:11:07;4.40;99.90
4910;DHT22;2470;49.868;8.660;2023-02-15T04:13:33;4.40;99.90
4910;DHT22;2470;49.868;8.660;2023-02-15T04:15:58;4.40;99.90
4910;DHT22;2470;49.868;8.660;2023-02-15T04:18:36;4.30;99.90
4910;DHT22;2470;49.868;8.660;2023-02-15T04:21:21;4.30;99.90
4910;DHT22;2470;49.868;8.660;2023-02-15T04:24:06;4.30;99.90
4910;DHT22;2470;49.868;8.660;2023-02-15T04:26:50;4.20;99.90
4910;DHT22;2470;49.868;8.660;2023-02-15T04:29:19;4.10;99.90
4910;DHT22;2470;49.868;8.660;2023-02-15T04:31:45;4.10;99.90
4910;DHT22;2470;49.868;8.660;2023-02-15T04:34:11;4.00;99.90
4910;DHT22;2470;49.868;8.660;2023-02-15T04:36:40;3.90;99.90
4910;DHT22;2470;49.868;8.660;2023-02-15T04:39:06;3.80;99.90
4910;DHT22;2470;49.868;8.660;2023-02-15T04:41:32;3.90;99.90
4910;DHT22;2470;49.868;8.660;2023-02-15T04:43:58;3.90;99.90
4910;DHT22;2470;49.868;8.660;2023-02-15T04:46:25;4.00;99.90
4910;DHT22;2470;49.868;8.660;2023-02-15T04:48:51;4.10;99.90
4910;DHT22;2470;49.868;8.660;2023-02-15T04:51:17;4.10;99.90
4910;DHT22;2470;49.868;8.660;2023-02-15T04:53:42;4.10;99.90
4910;DHT22;2470;49.868;8.660;2023-02-15T04:56:08;4.10;99.90
4910;DHT22;2470;49.868;8.660;2023-02-15T04:58:33;4.10;99.90
4910;DHT22;2470;49.868;8.660;2023-02-15T05:01:00;4.10;99.90
4910;DHT22;2470;49.868;8.660;2023-02-15T05:03:26;4.10;99.90
4910;DHT22;2470;49.868;8.660;2023-02-15T05:05:51;4.00;99.90
4910;DHT22;2470;49.868;8.660;2023-02-15T05:08:17;3.90;99.90
4910;DHT22;2470;49.868;8.660;2023-02-15T05:10:42;3.70;99.90
4910;DHT22;2470;49.868;8.660;2023-02-15T05:13:08;3.50;99.90
4910;DHT22;2470;49.868;8.660;2023-02-15T05:15:34;3.40;99.90
4910;DHT22;2470;49.868;8.660;2023-02-15T05:17:59;3.30;99.90
4910;DHT22;2470;49.868;8.660;2023-02-15T05:20:26;3.40;99.90
4910;DHT22;2470;49.868;8.660;2023-02-15T05:22:55;3.40;99.90
4910;DHT22;2470;49.868;8.660;2023-02-15T05:25:20;3.40;99.90
4910;DHT22;2470;49.868;8.660;2023-02-15T05:28:05;3.40;99.90
4910;DHT22;2470;49.868;8.660;2023-02-15T05:31:04;3.30;99.90
4910;DHT22;2470;49.868;8.660;2023-02-15T05:33:30;3.20;99.90
4910;DHT22;2470;49.868;8.660;2023-02-15T05:35:55;3.20;99.90
4910;DHT22;2470;49.868;8.660;2023-02-15T05:38:21;3.30;99.90
4910;DHT22;2470;49.868;8.660;2023-02-15T05:40:46;3.40;99.90
4910;DHT22;2470;49.868;8.660;2023-02-15T05:43:12;3.40;99.90
4910;DHT22;2470;49.868;8.660;2023-02-15T05:45:37;3.50;99.90
4910;DHT22;2470;49.868;8.660;2023-02-15T05:48:03;3.60;99.90
4910;DHT22;2470;49.868;8.660;2023-02-15T05:50:28;3.60;99.90
4910;DHT22;2470;49.868;8.660;2023-02-15T05:52:54;3.70;99.90
4910;DHT22;2470;49.868;8.660;2023-02-15T05:55:20;3.70;99.90
4910;DHT22;2470;49.868;8.660;2023-02-15T05:57:45;3.60;99.90
4910;DHT22;2470;49.868;8.660;2023-02-15T06:00:12;3.60;99.90
4910;DHT22;2470;49.868;8.660;2023-02-15T06:02:38;3.60;99.90
4910;DHT22;2470;49.868;8.660;2023-02-15T06:05:04;3.70;99.90
4910;DHT22;2470;49.868;8.660;2023-02-15T06:07:30;3.70;99.90
4910;DHT22;2470;49.868;8.660;2023-02-15T06:09:55;3.80;99.90
4910;DHT22;2470;49.868;8.660;2023-02-15T06:12:21;3.80;99.90
4910;DHT22;2470;49.868;8.660;2023-02-15T06:14:46;3.70;99.90
4910;DHT22;2470;49.868;8.660;2023-02-15T06:17:12;3.70;99.90
4910;DHT22;2470;49.868;8.660;2023-02-15T06:19:37;3.60;99.90
4910;DHT22;2470;49.868;8.660;2023-02-15T06:22:03;3.60;99.90
4910;DHT22;2470;49.868;8.660;2023-02-15T06:24:28;3.70;99.90
4910;DHT22;2470;49.868;8.660;2023-02-15T06:26:54;3.70;99.90
4910;DHT22;2470;49.868;8.660;2023-02-15T06:29:19;3.70;99.90
4910;DHT22;2470;49.868;8.660;2023-02-15T06:31:45;3.80;99.90
4910;DHT22;2470;49.868;8.660;2023-02-15T06:34:10;3.70;99.90
4910;DHT22;2470;49.868;8.660;2023-02-15T06:36:36;3.70;99.90
4910;DHT22;2470;49.868;8.660;2023-02-15T06:39:02;3.70;99.90
4910;DHT22;2470;49.868;8.660;2023-02-15T06:41:28;3.70;99.90
4910;DHT22;2470;49.868;8.660;2023-02-15T06:43:53;3.60;99.90
4910;DHT22;2470;49.868;8.660;2023-02-15T06:46:19;3.50;99.90
4910;DHT22;2470;49.868;8.660;2023-02-15T06:48:44;3.60;99.90
4910;DHT22;2470;49.868;8.660;2023-02-15T06:51:10;3.50;99.90
4910;DHT22;2470;49.868;8.660;2023-02-15T06:53:35;3.50;99.90
4910;DHT22;2470;49.868;8.660;2023-02-15T06:56:06;3.60;99.90
4910;DHT22;2470;49.868;8.660;2023-02-15T06:58:34;3.60;99.90
4910;DHT22;2470;49.868;8.660;2023-02-15T07:01:00;3.70;99.90
4910;DHT22;2470;49.868;8.660;2023-02-15T07:03:26;3.70;99.90
4910;DHT22;2470;49.868;8.660;2023-02-15T07:05:58;3.70;99.90
4910;DHT22;2470;49.868;8.660;2023-02-15T07:08:25;3.80;99.90
4910;DHT22;2470;49.868;8.660;2023-02-15T07:10:52;4.00;99.90
4910;DHT22;2470;49.868;8.660;2023-02-15T07:13:18;4.10;99.90
4910;DHT22;2470;49.868;8.660;2023-02-15T07:15:45;4.20;99.90
4910;DHT22;2470;49.868;8.660;2023-02-15T07:18:11;4.20;99.90
4910;DHT22;2470;49.868;8.660;2023-02-15T07:20:37;4.10;99.90
4910;DHT22;2470;49.868;8.660;2023-02-15T07:23:04;4.10;99.90
4910;DHT22;2470;49.868;8.660;2023-02-15T07:25:30;4.10;99.90
4910;DHT22;2470;49.868;8.660;2023-02-15T07:27:57;4.00;99.90
4910;DHT22;2470;49.868;8.660;2023-02-15T07:30:23;4.00;99.90
4910;DHT22;2470;49.868;8.660;2023-02-15T07:32:48;4.00;99.90
4910;DHT22;2470;49.868;8.660;2023-02-15T07:35:48;4.00;99.90
4910;DHT22;2470;49.868;8.660;2023-02-15T07:38:14;4.10;99.90
4910;DHT22;2470;49.868;8.660;2023-02-15T07:40:39;4.00;99.90
4910;DHT22;2470;49.868;8.660;2023-02-15T07:43:05;4.10;99.90
4910;DHT22;2470;49.868;8.660;2023-02-15T07:45:30;4.00;99.90
4910;DHT22;2470;49.868;8.660;2023-02-15T07:47:55;4.10;99.90
4910;DHT22;2470;49.868;8.660;2023-02-15T07:50:21;4.10;99.90
4910;DHT22;2470;49.868;8.660;2023-02-15T07:52:46;4.20;99.90
4910;DHT22;2470;49.868;8.660;2023-02-15T07:55:12;4.20;99.90
4910;DHT22;2470;49.868;8.660;2023-02-15T07:57:42;4.30;99.90
4910;DHT22;2470;49.868;8.660;2023-02-15T08:00:08;4.20;99.90
4910;DHT22;2470;49.868;8.660;2023-02-15T08:02:34;4.20;99.90
4910;DHT22;2470;49.868;8.660;2023-02-15T08:05:02;4.20;99.90
4910;DHT22;2470;49.868;8.660;2023-02-15T08:07:28;4.20;99.90
4910;DHT22;2470;49.868;8.660;2023-02-15T08:09:53;4.20;99.90
4910;DHT22;2470;49.868;8.660;2023-02-15T08:12:19;4.20;99.90
4910;DHT22;2470;49.868;8.660;2023-02-15T08:14:44;4.10;99.90
4910;DHT22;2470;49.868;8.660;2023-02-15T08:17:10;4.10;99.90
4910;DHT22;2470;49.868;8.660;2023-02-15T08:19:36;4.10;99.90
4910;DHT22;2470;49.868;8.660;2023-02-15T08:22:03;4.10;99.90
4910;DHT22;2470;49.868;8.660;2023-02-15T08:24:35;3.90;99.90
4910;DHT22;2470;49.868;8.660;2023-02-15T08:27:03;3.90;99.90
4910;DHT22;2470;49.868;8.660;2023-02-15T08:29:29;3.80;99.90
4910;DHT22;2470;49.868;8.660;2023-02-15T08:31:58;3.80;99.90
4910;DHT22;2470;49.868;8.660;2023-02-15T08:34:27;3.90;99.90
4910;DHT22;2470;49.868;8.660;2023-02-15T08:36:53;3.80;99.90
4910;DHT22;2470;49.868;8.660;2023-02-15T08:39:18;3.90;99.90
4910;DHT22;2470;49.868;8.660;2023-02-15T08:41:45;3.90;99.90
4910;DHT22;2470;49.868;8.660;2023-02-15T08:44:12;3.80;99.90
4910;DHT22;2470;49.868;8.660;2023-02-15T08:46:39;3.70;99.90
4910;DHT22;2470;49.868;8.660;2023-02-15T08:49:06;3.70;99.90
4910;DHT22;2470;49.868;8.660;2023-02-15T08:51:34;3.70;99.90
4910;DHT22;2470;49.868;8.660;2023-02-15T08:54:03;3.80;99.90
4910;DHT22;2470;49.868;8.660;2023-02-15T08:56:33;3.90;99.90
4910;DHT22;2470;49.868;8.660;2023-02-15T08:58:58;4.00;99.90
4910;DHT22;2470;49.868;8.660;2023-02-15T09:01:26;4.10;99.90
4910;DHT22;2470;49.868;8.660;2023-02-15T09:03:58;4.20;99.90
4910;DHT22;2470;49.868;8.660;2023-02-15T09:06:24;4.30;99.90
4910;DHT22;2470;49.868;8.660;2023-02-15T09:08:50;4.30;99.90
4910;DHT22;2470;49.868;8.660;2023-02-15T09:11:27;4.30;99.90
4910;DHT22;2470;49.868;8.660;2023-02-15T09:13:55;4.20;99.90
4910;DHT22;2470;49.868;8.660;2023-02-15T09:16:22;4.30;99.90
4910;DHT22;2470;49.868;8.660;2023-02-15T09:18:51;4.30;99.90
4910;DHT22;2470;49.868;8.660;2023-02-15T09:21:19;4.30;99.90
4910;DHT22;2470;49.868;8.660;2023-02-15T09:23:47;4.30;99.90
4910;DHT22;2470;49.868;8.660;2023-02-15T09:26:15;4.30;99.90
4910;DHT22;2470;49.868;8.660;2023-02-15T09:28:41;4.40;99.90
4910;DHT22;2470;49.868;8.660;2023-02-15T09:31:12;4.40;99.90
4910;DHT22;2470;49.868;8.660;2023-02-15T09:33:39;4.30;99.90
4910;DHT22;2470;49.868;8.660;2023-02-15T09:36:12;4.40;99.90
4910;DHT22;2470;49.868;8.660;2023-02-15T09:38:39;4.40;99.90
4910;DHT22;2470;49.868;8.660;2023-02-15T09:41:21;4.40;99.90
4910;DHT22;2470;49.868;8.660;2023-02-15T09:44:18;4.40;99.90
4910;DHT22;2470;49.868;8.660;2023-02-15T09:50:34;4.50;99.90
4910;DHT22;2470;49.868;8.660;2023-02-15T09:53:00;4.60;99.90
4910;DHT22;2470;49.868;8.660;2023-02-15T09:55:35;4.60;99.90
4910;DHT22;2470;49.868;8.660;2023-02-15T10:09:14;5.00;99.90
4910;DHT22;2470;49.868;8.660;2023-02-15T10:14:37;4.80;99.90
4910;DHT22;2470;49.868;8.660;2023-02-15T10:18:26;4.60;99.90
4910;DHT22;2470;49.868;8.660;2023-02-15T10:26:07;4.00;99.90
4910;DHT22;2470;49.868;8.660;2023-02-15T10:28:49;3.80;99.90
4910;DHT22;2470;49.868;8.660;2023-02-15T10:31:27;3.80;99.90
4910;DHT22;2470;49.868;8.660;2023-02-15T10:34:14;3.90;99.90
4910;DHT22;2470;49.868;8.660;2023-02-15T10:39:28;3.90;99.90
4910;DHT22;2470;49.868;8.660;2023-02-15T10:48:02;3.70;99.90
4910;DHT22;2470;49.868;8.660;2023-02-15T10:50:46;3.70;99.90
4910;DHT22;2470;49.868;8.660;2023-02-15T10:53:19;3.80;99.90
4910;DHT22;2470;49.868;8.660;2023-02-15T10:56:15;3.70;99.90
4910;DHT22;2470;49.868;8.660;2023-02-15T10:58:57;3.80;99.90
4910;DHT22;2470;49.868;8.660;2023-02-15T11:01:40;3.70;99.90
4910;DHT22;2470;49.868;8.660;2023-02-15T11:07:08;3.60;99.90
4910;DHT22;2470;49.868;8.660;2023-02-15T11:09:41;3.60;99.90
4910;DHT22;2470;49.868;8.660;2023-02-15T11:12:11;3.70;99.90
4910;DHT22;2470;49.868;8.660;2023-02-15T11:14:58;3.70;99.90
4910;DHT22;2470;49.868;8.660;2023-02-15T11:17:30;3.70;99.90
4910;DHT22;2470;49.868;8.660;2023-02-15T11:20:29;3.90;99.90
4910;DHT22;2470;49.868;8.660;2023-02-15T11:22:56;4.00;99.90
4910;DHT22;2470;49.868;8.660;2023-02-15T11:25:35;4.20;99.90
4910;DHT22;2470;49.868;8.660;2023-02-15T11:28:05;4.30;99.90
4910;DHT22;2470;49.868;8.660;2023-02-15T11:30:54;4.20;99.90
4910;DHT22;2470;49.868;8.660;2023-02-15T11:33:27;4.30;99.90
4910;DHT22;2470;49.868;8.660;2023-02-15T11:36:05;4.50;99.90
4910;DHT22;2470;49.868;8.660;2023-02-15T11:38:34;4.60;99.90
4910;DHT22;2470;49.868;8.660;2023-02-15T11:41:09;4.70;99.90
4910;DHT22;2470;49.868;8.660;2023-02-15T11:43:50;4.70;99.90
4910;DHT22;2470;49.868;8.660;2023-02-15T11:46:18;4.70;99.90
4910;DHT22;2470;49.868;8.660;2023-02-15T11:48:46;4.70;99.90
4910;DHT22;2470;49.868;8.660;2023-02-15T11:51:16;4.60;99.90
4910;DHT22;2470;49.868;8.660;2023-02-15T11:53:43;4.50;99.90
4910;DHT22;2470;49.868;8.660;2023-02-15T11:56:18;4.40;99.90
4910;DHT22;2470;49.868;8.660;2023-02-15T11:59:00;4.40;99.90
4910;DHT22;2470;49.868;8.660;2023-02-15T12:01:33;4.40;99.90
4910;DHT22;2470;49.868;8.660;2023-02-15T12:07:26;4.50;99.90
4910;DHT22;2470;49.868;8.660;2023-02-15T12:10:46;4.60;99.90
4910;DHT22;2470;49.868;8.660;2023-02-15T12:15:40;4.70;99.90
4910;DHT22;2470;49.868;8.660;2023-02-15T12:18:18;4.90;99.90
4910;DHT22;2470;49.868;8.660;2023-02-15T12:20:44;5.00;99.90
4910;DHT22;2470;49.868;8.660;2023-02-15T12:23:14;5.10;99.90
4910;DHT22;2470;49.868;8.660;2023-02-15T12:25:42;5.20;99.90
4910;DHT22;2470;49.868;8.660;2023-02-15T12:28:23;5.30;99.90
4910;DHT22;2470;49.868;8.660;2023-02-15T12:30:50;5.50;99.90
4910;DHT22;2470;49.868;8.660;2023-02-15T12:36:15;5.50;99.90
4910;DHT22;2470;49.868;8.660;2023-02-15T12:38:42;5.70;99.90
4910;DHT22;2470;49.868;8.660;2023-02-15T12:41:26;5.80;99.90
4910;DHT22;2470;49.868;8.660;2023-02-15T12:47:00;6.00;99.90
4910;DHT22;2470;49.868;8.660;2023-02-15T12:49:27;6.00;99.90
4910;DHT22;2470;49.868;8.660;2023-02-15T12:51:57;6.10;99.90
4910;DHT22;2470;49.868;8.660;2023-02-15T12:54:42;6.10;99.90
4910;DHT22;2470;49.868;8.660;2023-02-15T12:57:24;6.00;99.90
4910;DHT22;2470;49.868;8.660;2023-02-15T12:59:56;6.00;99.90
4910;DHT22;2470;49.868;8.660;2023-02-15T13:02:33;6.00;99.90
4910;DHT22;2470;49.868;8.660;2023-02-15T13:05:32;6.10;99.90
4910;DHT22;2470;49.868;8.660;2023-02-15T13:08:14;6.00;99.90
4910;DHT22;2470;49.868;8.660;2023-02-15T13:13:20;6.00;99.90
4910;DHT22;2470;49.868;8.660;2023-02-15T13:15:49;6.00;99.90
4910;DHT22;2470;49.868;8.660;2023-02-15T13:18:19;6.10;99.90
4910;DHT22;2470;49.868;8.660;2023-02-15T13:20:49;6.20;99.90
4910;DHT22;2470;49.868;8.660;2023-02-15T13:23:27;6.40;99.90
4910;DHT22;2470;49.868;8.660;2023-02-15T13:25:56;6.50;99.90
4910;DHT22;2470;49.868;8.660;2023-02-15T13:28:27;6.50;99.90
4910;DHT22;2470;49.868;8.660;2023-02-15T13:30:56;6.70;99.90
4910;DHT22;2470;49.868;8.660;2023-02-15T13:33:34;6.60;99.90
4910;DHT22;2470;49.868;8.660;2023-02-15T13:47:59;6.80;99.90
4910;DHT22;2470;49.868;8.660;2023-02-15T13:50:48;6.80;99.90
4910;DHT22;2470;49.868;8.660;2023-02-15T13:53:28;6.80;99.90
4910;DHT22;2470;49.868;8.660;2023-02-15T14:00:03;7.00;99.90
4910;DHT22;2470;49.868;8.660;2023-02-15T14:08:17;7.20;99.90
4910;DHT22;2470;49.868;8.660;2023-02-15T14:19:39;7.40;99.90
4910;DHT22;2470;49.868;8.660;2023-02-15T14:22:20;7.20;99.90
4910;DHT22;2470;49.868;8.660;2023-02-15T14:30:36;7.30;99.90
4910;DHT22;2470;49.868;8.660;2023-02-15T14:33:08;7.20;99.90
4910;DHT22;2470;49.868;8.660;2023-02-15T14:35:34;7.00;99.90
4910;DHT22;2470;49.868;8.660;2023-02-15T14:38:13;6.90;99.90
4910;DHT22;2470;49.868;8.660;2023-02-15T14:40:57;6.90;99.90
4910;DHT22;2470;49.868;8.660;2023-02-15T14:43:45;6.80;99.90
4910;DHT22;2470;49.868;8.660;2023-02-15T14:46:17;6.80;99.90
4910;DHT22;2470;49.868;8.660;2023-02-15T14:48:47;6.70;99.90
4910;DHT22;2470;49.868;8.660;2023-02-15T14:51:53;6.60;99.90
4910;DHT22;2470;49.868;8.660;2023-02-15T14:59:40;6.20;99.90
4910;DHT22;2470;49.868;8.660;2023-02-15T15:04:38;6.10;99.90
4910;DHT22;2470;49.868;8.660;2023-02-15T15:07:20;6.10;99.90
4910;DHT22;2470;49.868;8.660;2023-02-15T15:10:03;6.00;99.90
4910;DHT22;2470;49.868;8.660;2023-02-15T15:14:57;5.80;99.90
4910;DHT22;2470;49.868;8.660;2023-02-15T15:20:04;5.70;99.90
4910;DHT22;2470;49.868;8.660;2023-02-15T15:22:33;5.60;99.90
4910;DHT22;2470;49.868;8.660;2023-02-15T15:25:04;5.60;99.90
4910;DHT22;2470;49.868;8.660;2023-02-15T15:32:52;5.70;99.90
4910;DHT22;2470;49.868;8.660;2023-02-15T15:36:06;5.70;99.90
4910;DHT22;2470;49.868;8.660;2023-02-15T15:44:28;5.50;99.90
4910;DHT22;2470;49.868;8.660;2023-02-15T15:47:24;5.50;99.90
4910;DHT22;2470;49.868;8.660;2023-02-15T15:49:56;5.40;99.90
4910;DHT22;2470;49.868;8.660;2023-02-15T15:52:22;5.30;99.90
4910;DHT22;2470;49.868;8.660;2023-02-15T15:54:54;5.40;99.90
4910;DHT22;2470;49.868;8.660;2023-02-15T15:57:42;5.40;99.90
4910;DHT22;2470;49.868;8.660;2023-02-15T16:02:53;5.50;99.90
4910;DHT22;2470;49.868;8.660;2023-02-15T16:05:19;5.40;99.90
4910;DHT22;2470;49.868;8.660;2023-02-15T16:07:45;5.30;99.90
4910;DHT22;2470;49.868;8.660;2023-02-15T16:10:22;5.20;99.90
4910;DHT22;2470;49.868;8.660;2023-02-15T16:12:49;5.10;99.90
4910;DHT22;2470;49.868;8.660;2023-02-15T16:15:21;4.90;99.90
4910;DHT22;2470;49.868;8.660;2023-02-15T16:17:52;4.80;99.90
4910;DHT22;2470;49.868;8.660;2023-02-15T16:20:23;4.80;99.90
4910;DHT22;2470;49.868;8.660;2023-02-15T16:25:57;4.80;99.90
4910;DHT22;2470;49.868;8.660;2023-02-15T16:28:26;4.70;99.90
4910;DHT22;2470;49.868;8.660;2023-02-15T16:31:13;4.70;99.90
4910;DHT22;2470;49.868;8.660;2023-02-15T16:33:41;4.80;99.90
4910;DHT22;2470;49.868;8.660;2023-02-15T16:36:12;4.80;99.90
4910;DHT22;2470;49.868;8.660;2023-02-15T16:41:23;4.70;99.90
4910;DHT22;2470;49.868;8.660;2023-02-15T16:43:50;4.80;99.90
4910;DHT22;2470;49.868;8.660;2023-02-15T16:46:25;4.80;99.90
4910;DHT22;2470;49.868;8.660;2023-02-15T16:48:54;4.80;99.90
4910;DHT22;2470;49.868;8.660;2023-02-15T16:51:24;4.90;99.90
4910;DHT22;2470;49.868;8.660;2023-02-15T16:53:52;5.00;99.90
4910;DHT22;2470;49.868;8.660;2023-02-15T16:56:24;5.00;99.90
4910;DHT22;2470;49.868;8.660;2023-02-15T16:58:52;5.00;99.90
4910;DHT22;2470;49.868;8.660;2023-02-15T17:01:21;5.00;99.90
4910;DHT22;2470;49.868;8.660;2023-02-15T17:03:50;5.00;99.90
4910;DHT22;2470;49.868;8.660;2023-02-15T17:06:22;4.90;99.90
4910;DHT22;2470;49.868;8.660;2023-02-15T17:08:48;4.80;99.90
4910;DHT22;2470;49.868;8.660;2023-02-15T17:11:19;4.70;99.90
4910;DHT22;2470;49.868;8.660;2023-02-15T17:16:58;4.60;99.90
4910;DHT22;2470;49.868;8.660;2023-02-15T17:19:31;4.70;99.90
4910;DHT22;2470;49.868;8.660;2023-02-15T17:22:05;4.70;99.90
4910;DHT22;2470;49.868;8.660;2023-02-15T17:24:35;4.60;99.90
4910;DHT22;2470;49.868;8.660;2023-02-15T17:27:06;4.60;99.90
4910;DHT22;2470;49.868;8.660;2023-02-15T17:29:41;4.50;99.90
4910;DHT22;2470;49.868;8.660;2023-02-15T17:32:21;4.50;99.90
4910;DHT22;2470;49.868;8.660;2023-02-15T17:34:51;4.50;99.90
4910;DHT22;2470;49.868;8.660;2023-02-15T17:37:27;4.50;99.90
4910;DHT22;2470;49.868;8.660;2023-02-15T17:39:53;4.40;99.90
4910;DHT22;2470;49.868;8.660;2023-02-15T17:42:20;4.30;99.90
4910;DHT22;2470;49.868;8.660;2023-02-15T17:44:45;4.30;99.90
4910;DHT22;2470;49.868;8.660;2023-02-15T17:47:15;4.40;99.90
4910;DHT22;2470;49.868;8.660;2023-02-15T17:49:42;4.40;99.90
4910;DHT22;2470;49.868;8.660;2023-02-15T17:52:11;4.40;99.90
4910;DHT22;2470;49.868;8.660;2023-02-15T17:54:39;4.40;99.90
4910;DHT22;2470;49.868;8.660;2023-02-15T17:57:23;4.40;99.90
4910;DHT22;2470;49.868;8.660;2023-02-15T17:59:51;4.30;99.90
4910;DHT22;2470;49.868;8.660;2023-02-15T18:02:35;4.30;99.90
4910;DHT22;2470;49.868;8.660;2023-02-15T18:05:19;4.40;99.90
4910;DHT22;2470;49.868;8.660;2023-02-15T18:08:08;4.50;99.90
4910;DHT22;2470;49.868;8.660;2023-02-15T18:10:53;4.50;99.90
4910;DHT22;2470;49.868;8.660;2023-02-15T18:13:37;4.60;99.90
4910;DHT22;2470;49.868;8.660;2023-02-15T18:16:02;4.60;99.90
4910;DHT22;2470;49.868;8.660;2023-02-15T18:18:28;4.60;99.90
4910;DHT22;2470;49.868;8.660;2023-02-15T18:20:53;4.60;99.90
4910;DHT22;2470;49.868;8.660;2023-02-15T18:23:19;4.70;99.90
4910;DHT22;2470;49.868;8.660;2023-02-15T18:25:45;4.70;99.90
4910;DHT22;2470;49.868;8.660;2023-02-15T18:28:10;4.70;99.90
4910;DHT22;2470;49.868;8.660;2023-02-15T18:30:39;4.70;99.90
4910;DHT22;2470;49.868;8.660;2023-02-15T18:35:57;4.40;99.90
4910;DHT22;2470;49.868;8.660;2023-02-15T18:38:23;4.40;99.90
4910;DHT22;2470;49.868;8.660;2023-02-15T18:40:48;4.40;99.90
4910;DHT22;2470;49.868;8.660;2023-02-15T18:43:15;4.50;99.90
4910;DHT22;2470;49.868;8.660;2023-02-15T18:45:40;4.50;99.90
4910;DHT22;2470;49.868;8.660;2023-02-15T18:48:06;4.60;99.90
4910;DHT22;2470;49.868;8.660;2023-02-15T18:50:36;4.70;99.90
4910;DHT22;2470;49.868;8.660;2023-02-15T18:53:03;4.70;99.90
4910;DHT22;2470;49.868;8.660;2023-02-15T18:55:30;4.70;99.90
4910;DHT22;2470;49.868;8.660;2023-02-15T18:57:59;4.70;99.90
4910;DHT22;2470;49.868;8.660;2023-02-15T19:00:28;4.80;99.90
4910;DHT22;2470;49.868;8.660;2023-02-15T19:02:56;4.80;99.90
4910;DHT22;2470;49.868;8.660;2023-02-15T19:05:22;4.80;99.90
4910;DHT22;2470;49.868;8.660;2023-02-15T19:07:49;4.80;99.90
4910;DHT22;2470;49.868;8.660;2023-02-15T19:10:18;4.80;99.90